createdAt,value
2022-09-11T00:00:58.816Z,14.82
2022-09-11T00:02:03.142Z,14.75
2022-09-11T00:03:06.737Z,14.82
2022-09-11T00:04:11.909Z,14.75
2022-09-11T00:05:15.298Z,14.63
2022-09-11T00:06:29.274Z,14.57
2022-09-11T00:07:27.949Z,14.52
2022-09-11T00:08:35.131Z,14.59
2022-09-11T00:09:38.300Z,14.69
2022-09-11T00:10:44.922Z,14.52
2022-09-11T00:11:48.021Z,14.58
2022-09-11T00:12:50.590Z,14.35
2022-09-11T00:13:54.817Z,14.40
2022-09-11T00:14:58.015Z,14.40
2022-09-11T00:16:02.674Z,14.42
2022-09-11T00:17:05.832Z,14.40
2022-09-11T00:18:09.776Z,14.28
2022-09-11T00:19:13.918Z,14.22
2022-09-11T00:20:18.258Z,14.17
2022-09-11T00:21:22.285Z,14.16
2022-09-11T00:22:25.510Z,14.15
2022-09-11T00:23:29.401Z,14.17
2022-09-11T00:24:32.800Z,14.26
2022-09-11T00:25:36.443Z,14.33
2022-09-11T00:26:40.543Z,14.29
2022-09-11T00:27:45.454Z,14.28
2022-09-11T00:28:51.065Z,14.24
2022-09-11T00:29:58.064Z,14.23
2022-09-11T00:31:04.324Z,14.19
2022-09-11T00:32:08.907Z,14.08
2022-09-11T00:33:14.314Z,14.14
2022-09-11T00:34:17.613Z,14.18
2022-09-11T00:35:21.011Z,14.21
2022-09-11T00:36:26.590Z,14.19
2022-09-11T00:37:30.112Z,14.14
2022-09-11T00:38:34.962Z,14.12
2022-09-11T00:39:38.386Z,14.13
2022-09-11T00:40:49.817Z,14.17
2022-09-11T00:41:53.113Z,14.20
2022-09-11T00:42:58.393Z,14.27
2022-09-11T00:44:05.570Z,14.25
2022-09-11T00:45:09.512Z,14.19
2022-09-11T00:46:14.960Z,14.33
2022-09-11T00:47:22.065Z,14.28
2022-09-11T00:48:27.407Z,14.25
2022-09-11T00:49:34.249Z,14.28
2022-09-11T00:50:37.758Z,14.32
2022-09-11T00:51:41.197Z,14.22
2022-09-11T00:52:53.329Z,14.22
2022-09-11T00:53:59.726Z,14.22
2022-09-11T00:55:09.471Z,14.22
2022-09-11T00:56:13.028Z,14.28
2022-09-11T00:57:17.888Z,14.27
2022-09-11T00:58:24.320Z,14.23
2022-09-11T00:59:32.780Z,14.21
2022-09-11T01:00:39.455Z,14.20
2022-09-11T01:01:42.818Z,14.30
2022-09-11T01:02:48.510Z,14.38
2022-09-11T01:03:52.955Z,14.45
2022-09-11T01:04:58.820Z,14.50
2022-09-11T01:06:02.652Z,14.51
2022-09-11T01:07:05.219Z,14.43
2022-09-11T01:08:12.446Z,14.36
2022-09-11T01:09:18.018Z,14.35
2022-09-11T01:10:23.553Z,14.36
2022-09-11T01:11:31.455Z,14.41
2022-09-11T01:12:48.962Z,14.46
2022-09-11T01:13:55.265Z,14.60
2022-09-11T01:15:01.924Z,14.44
2022-09-11T01:16:07.210Z,14.44
2022-09-11T01:17:27.562Z,14.43
2022-09-11T01:18:32.838Z,14.50
2022-09-11T01:19:40.905Z,14.41
2022-09-11T01:20:45.131Z,14.49
2022-09-11T01:21:59.395Z,14.54
2022-09-11T01:23:23.591Z,14.55
2022-09-11T01:24:42.868Z,14.74
2022-09-11T01:25:59.639Z,14.67
2022-09-11T01:27:24.806Z,14.60
2022-09-11T01:28:34.315Z,14.48
2022-09-11T01:29:45.352Z,14.42
2022-09-11T01:30:49.996Z,14.61
2022-09-11T01:32:10.640Z,14.51
2022-09-11T01:33:24.486Z,14.66
2022-09-11T01:34:38.018Z,14.59
2022-09-11T01:35:52.795Z,14.52
2022-09-11T01:36:58.164Z,14.53
2022-09-11T01:38:10.114Z,14.69
2022-09-11T01:39:14.900Z,14.70
2022-09-11T01:40:21.967Z,14.73
2022-09-11T01:41:37.379Z,14.77
2022-09-11T01:42:45.050Z,14.88
2022-09-11T01:43:51.071Z,14.72
2022-09-11T01:44:57.190Z,14.72
2022-09-11T01:46:02.807Z,14.70
2022-09-11T01:47:11.140Z,14.62
2022-09-11T01:48:16.792Z,14.67
2022-09-11T01:49:28.182Z,14.66
2022-09-11T01:50:33.516Z,14.57
2022-09-11T01:51:38.796Z,14.59
2022-09-11T01:52:42.931Z,14.77
2022-09-11T01:53:50.349Z,14.77
2022-09-11T01:55:01.144Z,14.63
2022-09-11T01:56:11.084Z,14.55
2022-09-11T01:57:28.491Z,14.48
2022-09-11T01:58:34.805Z,14.57
2022-09-11T01:59:48.243Z,14.77
2022-09-11T02:00:53.679Z,14.69
2022-09-11T02:01:58.636Z,14.53
2022-09-11T02:03:05.861Z,14.61
2022-09-11T02:04:12.279Z,14.60
2022-09-11T02:05:18.824Z,14.54
2022-09-11T02:06:26.064Z,14.72
2022-09-11T02:07:51.151Z,14.64
2022-09-11T02:08:58.794Z,14.71
2022-09-11T02:10:08.984Z,14.76
2022-09-11T02:11:13.311Z,14.74
2022-09-11T02:12:20.359Z,14.65
2022-09-11T02:13:31.307Z,14.60
2022-09-11T02:14:40.539Z,14.44
2022-09-11T02:15:47.710Z,14.58
2022-09-11T02:16:59.038Z,14.69
2022-09-11T02:18:03.882Z,14.69
2022-09-11T02:19:18.270Z,14.64
2022-09-11T02:20:21.888Z,14.52
2022-09-11T02:21:24.454Z,14.61
2022-09-11T02:22:28.023Z,14.75
2022-09-11T02:23:31.914Z,14.58
2022-09-11T02:24:35.491Z,14.51
2022-09-11T02:25:38.892Z,14.42
2022-09-11T02:26:48.665Z,14.49
2022-09-11T02:27:51.429Z,14.42
2022-09-11T02:28:55.673Z,14.46
2022-09-11T02:30:01.159Z,14.40
2022-09-11T02:31:08.613Z,14.56
2022-09-11T02:32:13.151Z,14.62
2022-09-11T02:33:27.450Z,14.72
2022-09-11T02:34:36.283Z,14.71
2022-09-11T02:35:50.963Z,14.60
2022-09-11T02:38:18.240Z,14.57
2022-09-11T02:39:23.935Z,14.43
2022-09-11T02:40:29.310Z,14.52
2022-09-11T02:41:43.372Z,14.66
2022-09-11T02:43:09.229Z,14.60
2022-09-11T02:44:14.931Z,14.55
2022-09-11T02:45:21.626Z,14.54
2022-09-11T02:46:30.817Z,14.63
2022-09-11T02:47:54.271Z,14.65
2022-09-11T02:49:00.585Z,14.58
2022-09-11T02:50:04.612Z,14.39
2022-09-11T02:51:09.579Z,14.40
2022-09-11T02:53:40.742Z,14.61
2022-09-11T02:55:00.736Z,14.52
2022-09-11T02:56:13.592Z,14.37
2022-09-11T02:57:31.879Z,14.57
2022-09-11T02:58:52.090Z,14.50
2022-09-11T02:59:57.997Z,14.62
2022-09-11T03:01:03.642Z,14.50
2022-09-11T03:02:09.561Z,14.36
2022-09-11T03:03:12.795Z,14.45
2022-09-11T03:04:17.752Z,14.60
2022-09-11T03:05:24.211Z,14.64
2022-09-11T03:06:28.630Z,14.74
2022-09-11T03:07:33.803Z,14.78
2022-09-11T03:08:38.703Z,14.51
2022-09-11T03:09:44.165Z,14.58
2022-09-11T03:10:50.802Z,14.56
2022-09-11T03:11:55.656Z,14.56
2022-09-11T03:13:01.722Z,14.60
2022-09-11T03:14:06.842Z,14.68
2022-09-11T03:15:11.613Z,14.70
2022-09-11T03:16:15.426Z,14.75
2022-09-11T03:17:18.831Z,14.66
2022-09-11T03:18:24.707Z,14.53
2022-09-11T03:19:31.382Z,14.51
2022-09-11T03:20:34.771Z,14.55
2022-09-11T03:21:40.047Z,14.55
2022-09-11T03:22:43.224Z,14.66
2022-09-11T03:23:46.638Z,14.66
2022-09-11T03:24:53.380Z,14.52
2022-09-11T03:25:58.360Z,14.68
2022-09-11T03:27:01.029Z,14.73
2022-09-11T03:28:05.473Z,14.67
2022-09-11T03:29:10.545Z,14.73
2022-09-11T03:30:13.725Z,14.72
2022-09-11T03:31:18.008Z,14.73
2022-09-11T03:32:23.436Z,14.73
2022-09-11T03:33:30.518Z,14.76
2022-09-11T03:34:34.743Z,14.85
2022-09-11T03:35:39.818Z,14.81
2022-09-11T03:36:46.854Z,14.83
2022-09-11T03:37:52.202Z,14.76
2022-09-11T03:38:56.920Z,14.90
2022-09-11T03:40:03.334Z,14.86
2022-09-11T03:41:09.620Z,14.88
2022-09-11T03:42:13.991Z,14.66
2022-09-11T03:43:17.628Z,14.73
2022-09-11T03:44:23.259Z,14.74
2022-09-11T03:45:26.946Z,14.91
2022-09-11T03:46:30.542Z,15.00
2022-09-11T03:47:33.828Z,14.90
2022-09-11T03:48:37.345Z,14.91
2022-09-11T03:49:40.719Z,14.98
2022-09-11T03:50:46.233Z,15.12
2022-09-11T03:51:51.086Z,14.95
2022-09-11T03:52:57.005Z,14.90
2022-09-11T03:54:04.218Z,14.95
2022-09-11T03:55:07.971Z,14.91
2022-09-11T03:56:11.278Z,14.98
2022-09-11T03:57:16.559Z,14.91
2022-09-11T03:58:20.169Z,14.89
2022-09-11T03:59:24.008Z,15.05
2022-09-11T04:00:30.131Z,15.01
2022-09-11T04:01:33.610Z,15.02
2022-09-11T04:02:39.096Z,15.05
2022-09-11T04:03:45.971Z,15.09
2022-09-11T04:04:51.259Z,15.14
2022-09-11T04:06:00.410Z,15.18
2022-09-11T04:07:05.124Z,15.06
2022-09-11T04:08:10.817Z,15.28
2022-09-11T04:09:15.156Z,15.36
2022-09-11T04:10:19.079Z,15.38
2022-09-11T04:11:24.683Z,15.35
2022-09-11T04:12:29.668Z,15.31
2022-09-11T04:13:37.333Z,15.28
2022-09-11T04:14:40.410Z,15.03
2022-09-11T04:15:44.658Z,14.95
2022-09-11T04:16:51.508Z,14.99
2022-09-11T04:17:55.847Z,15.09
2022-09-11T04:18:59.597Z,15.10
2022-09-11T04:20:03.961Z,15.18
2022-09-11T04:21:10.568Z,15.28
2022-09-11T04:22:15.921Z,15.23
2022-09-11T04:23:19.428Z,15.24
2022-09-11T04:24:22.513Z,15.22
2022-09-11T04:25:26.009Z,15.20
2022-09-11T04:26:31.747Z,15.16
2022-09-11T04:27:37.146Z,15.17
2022-09-11T04:28:40.075Z,15.28
2022-09-11T04:29:43.275Z,15.26
2022-09-11T04:30:46.996Z,15.35
2022-09-11T04:31:50.662Z,15.29
2022-09-11T04:32:54.419Z,15.45
2022-09-11T04:33:58.446Z,15.46
2022-09-11T04:35:03.506Z,15.54
2022-09-11T04:36:12.557Z,15.47
2022-09-11T04:37:16.991Z,15.54
2022-09-11T04:38:21.750Z,15.59
2022-09-11T04:39:25.045Z,15.48
2022-09-11T04:40:28.447Z,15.45
2022-09-11T04:41:32.172Z,15.47
2022-09-11T04:42:37.024Z,15.50
2022-09-11T04:43:42.739Z,15.53
2022-09-11T04:44:46.751Z,15.37
2022-09-11T04:45:52.262Z,15.45
2022-09-11T04:46:57.836Z,15.63
2022-09-11T04:48:01.655Z,15.60
2022-09-11T04:49:05.689Z,15.65
2022-09-11T04:50:09.507Z,15.58
2022-09-11T04:51:23.873Z,15.63
2022-09-11T04:52:28.454Z,15.70
2022-09-11T04:53:35.678Z,15.80
2022-09-11T04:54:40.197Z,15.85
2022-09-11T04:55:46.657Z,15.83
2022-09-11T04:56:50.266Z,15.85
2022-09-11T04:57:55.765Z,15.96
2022-09-11T04:59:06.561Z,15.79
2022-09-11T05:00:11.727Z,15.85
2022-09-11T05:01:16.432Z,16.03
2022-09-11T05:02:20.627Z,16.07
2022-09-11T05:03:25.825Z,16.16
2022-09-11T05:04:29.840Z,16.15
2022-09-11T05:05:33.356Z,16.13
2022-09-11T05:06:39.781Z,16.16
2022-09-11T05:07:44.952Z,16.18
2022-09-11T05:08:48.142Z,16.20
2022-09-11T05:09:55.304Z,16.25
2022-09-11T05:11:00.746Z,16.27
2022-09-11T05:12:06.085Z,16.22
2022-09-11T05:13:15.865Z,16.27
2022-09-11T05:14:19.114Z,16.31
2022-09-11T05:15:24.643Z,16.36
2022-09-11T05:16:29.688Z,16.33
2022-09-11T05:17:35.101Z,16.31
2022-09-11T05:18:41.518Z,16.26
2022-09-11T05:19:45.231Z,16.30
2022-09-11T05:20:48.746Z,16.29
2022-09-11T05:21:52.137Z,16.24
2022-09-11T05:22:55.435Z,16.15
2022-09-11T05:24:00.429Z,16.12
2022-09-11T05:25:05.058Z,16.03
2022-09-11T05:26:11.389Z,15.82
2022-09-11T05:27:13.631Z,15.50
2022-09-11T05:28:18.738Z,15.40
2022-09-11T05:29:23.262Z,15.21
2022-09-11T05:30:32.442Z,15.30
2022-09-11T05:31:35.807Z,15.17
2022-09-11T05:32:39.775Z,15.37
2022-09-11T05:33:44.699Z,15.45
2022-09-11T05:34:47.264Z,15.39
2022-09-11T05:35:52.114Z,15.19
2022-09-11T05:37:00.539Z,15.13
2022-09-11T05:38:05.261Z,15.12
2022-09-11T05:39:09.001Z,15.09
2022-09-11T05:40:13.885Z,15.19
2022-09-11T05:41:18.067Z,15.00
2022-09-11T05:42:22.231Z,15.08
2022-09-11T05:43:29.612Z,14.98
2022-09-11T05:44:33.011Z,15.17
2022-09-11T05:45:37.001Z,15.04
2022-09-11T05:46:40.753Z,14.94
2022-09-11T05:47:44.043Z,14.90
2022-09-11T05:48:47.762Z,15.05
2022-09-11T05:49:51.055Z,14.95
2022-09-11T05:50:57.164Z,14.87
2022-09-11T05:52:00.785Z,15.00
2022-09-11T05:53:05.739Z,15.07
2022-09-11T05:54:10.407Z,15.00
2022-09-11T05:55:13.901Z,14.98
2022-09-11T05:56:21.125Z,14.91
2022-09-11T05:57:25.831Z,14.98
2022-09-11T05:58:32.530Z,14.97
2022-09-11T05:59:36.423Z,15.03
2022-09-11T06:00:41.326Z,15.23
2022-09-11T06:01:44.763Z,15.22
2022-09-11T06:02:49.934Z,15.25
2022-09-11T06:03:53.545Z,15.31
2022-09-11T06:04:58.502Z,15.30
2022-09-11T06:06:03.270Z,15.41
2022-09-11T06:07:07.013Z,15.19
2022-09-11T06:08:12.611Z,15.00
2022-09-11T06:09:16.354Z,15.03
2022-09-11T06:10:18.949Z,15.17
2022-09-11T06:11:22.494Z,14.82
2022-09-11T06:12:25.645Z,14.97
2022-09-11T06:13:35.115Z,15.20
2022-09-11T06:14:38.341Z,15.16
2022-09-11T06:15:46.942Z,15.26
2022-09-11T06:16:50.078Z,15.05
2022-09-11T06:17:54.253Z,15.12
2022-09-11T06:18:58.488Z,15.09
2022-09-11T06:20:01.158Z,15.27
2022-09-11T06:21:10.304Z,15.43
2022-09-11T06:22:15.468Z,15.57
2022-09-11T06:23:20.343Z,15.35
2022-09-11T06:24:25.309Z,15.04
2022-09-11T06:25:29.579Z,15.07
2022-09-11T06:26:35.806Z,15.22
2022-09-11T06:27:38.646Z,15.29
2022-09-11T06:28:43.914Z,15.30
2022-09-11T06:29:47.754Z,15.34
2022-09-11T06:30:54.230Z,15.28
2022-09-11T06:31:57.993Z,15.28
2022-09-11T06:33:02.148Z,15.31
2022-09-11T06:34:05.836Z,15.18
2022-09-11T06:35:09.815Z,15.16
2022-09-11T06:36:15.667Z,15.07
2022-09-11T06:37:19.275Z,15.16
2022-09-11T06:38:23.961Z,15.20
2022-09-11T06:39:26.379Z,14.88
2022-09-11T06:40:32.114Z,14.97
2022-09-11T06:41:36.840Z,14.91
2022-09-11T06:42:42.337Z,14.85
2022-09-11T06:43:46.457Z,15.05
2022-09-11T06:44:51.528Z,15.11
2022-09-11T06:45:55.178Z,15.22
2022-09-11T06:47:00.883Z,15.20
2022-09-11T06:48:06.428Z,15.34
2022-09-11T06:49:16.281Z,15.41
2022-09-11T06:50:42.471Z,15.41
2022-09-11T06:51:47.548Z,15.44
2022-09-11T06:52:53.565Z,15.56
2022-09-11T06:53:59.897Z,15.31
2022-09-11T06:55:08.833Z,15.27
2022-09-11T06:56:13.801Z,15.16
2022-09-11T06:57:18.175Z,15.25
2022-09-11T06:58:24.106Z,15.43
2022-09-11T06:59:28.528Z,15.54
2022-09-11T07:00:35.174Z,15.60
2022-09-11T07:01:41.365Z,15.51
2022-09-11T07:02:46.110Z,15.57
2022-09-11T07:03:51.157Z,15.40
2022-09-11T07:04:54.577Z,15.24
2022-09-11T07:05:58.284Z,15.23
2022-09-11T07:07:00.642Z,15.20
2022-09-11T07:08:05.096Z,15.20
2022-09-11T07:09:10.456Z,15.35
2022-09-11T07:10:17.527Z,15.53
2022-09-11T07:11:24.698Z,15.65
2022-09-11T07:12:28.819Z,15.71
2022-09-11T07:13:37.307Z,15.80
2022-09-11T07:14:39.182Z,15.61
2022-09-11T07:15:45.915Z,15.45
2022-09-11T07:16:50.496Z,15.68
2022-09-11T07:17:55.847Z,15.92
2022-09-11T07:18:58.528Z,16.14
2022-09-11T07:20:02.760Z,16.20
2022-09-11T07:21:08.045Z,15.92
2022-09-11T07:22:11.958Z,16.01
2022-09-11T07:23:16.449Z,16.15
2022-09-11T07:24:22.010Z,16.19
2022-09-11T07:25:26.350Z,16.26
2022-09-11T07:26:30.885Z,16.34
2022-09-11T07:27:36.375Z,16.38
2022-09-11T07:28:39.817Z,16.44
2022-09-11T07:29:42.873Z,16.49
2022-09-11T07:30:46.314Z,16.42
2022-09-11T07:31:51.204Z,16.42
2022-09-11T07:32:55.587Z,16.28
2022-09-11T07:33:59.609Z,16.43
2022-09-11T07:35:04.716Z,16.42
2022-09-11T07:36:12.493Z,16.45
2022-09-11T07:37:17.479Z,16.44
2022-09-11T07:38:21.286Z,16.43
2022-09-11T07:39:24.970Z,16.50
2022-09-11T07:40:30.283Z,16.44
2022-09-11T07:41:35.517Z,16.33
2022-09-11T07:42:44.514Z,16.37
2022-09-11T07:43:48.493Z,16.28
2022-09-11T07:44:50.847Z,16.14
2022-09-11T07:45:55.649Z,16.24
2022-09-11T07:47:01.293Z,16.39
2022-09-11T07:48:08.363Z,16.41
2022-09-11T07:49:16.114Z,16.28
2022-09-11T07:50:19.851Z,16.15
2022-09-11T07:51:24.202Z,16.21
2022-09-11T07:52:27.708Z,16.02
2022-09-11T07:53:35.066Z,15.85
2022-09-11T07:54:38.792Z,15.86
2022-09-11T07:55:43.863Z,15.94
2022-09-11T07:56:47.680Z,16.15
2022-09-11T07:57:54.638Z,15.93
2022-09-11T07:58:58.766Z,16.05
2022-09-11T08:00:02.506Z,16.14
2022-09-11T08:01:09.461Z,16.10
2022-09-11T08:02:14.855Z,16.28
2022-09-11T08:03:19.991Z,16.40
2022-09-11T08:04:23.391Z,16.40
2022-09-11T08:05:27.627Z,16.44
2022-09-11T08:06:33.851Z,16.36
2022-09-11T08:07:38.631Z,16.38
2022-09-11T08:08:43.156Z,16.46
2022-09-11T08:09:47.171Z,16.52
2022-09-11T08:10:50.478Z,16.46
2022-09-11T08:11:56.167Z,16.49
2022-09-11T08:13:00.416Z,16.41
2022-09-11T08:14:07.718Z,16.34
2022-09-11T08:15:11.067Z,16.42
2022-09-11T08:16:14.494Z,16.56
2022-09-11T08:17:18.820Z,16.55
2022-09-11T08:18:23.971Z,16.60
2022-09-11T08:19:26.978Z,16.52
2022-09-11T08:20:32.460Z,16.47
2022-09-11T08:21:36.078Z,16.47
2022-09-11T08:22:38.944Z,16.40
2022-09-11T08:23:44.723Z,16.40
2022-09-11T08:24:48.472Z,16.28
2022-09-11T08:25:53.533Z,16.37
2022-09-11T08:26:58.929Z,16.39
2022-09-11T08:28:02.945Z,16.35
2022-09-11T08:29:06.137Z,16.34
2022-09-11T08:30:11.227Z,16.47
2022-09-11T08:31:17.345Z,16.58
2022-09-11T08:32:20.840Z,16.67
2022-09-11T08:33:24.021Z,16.61
2022-09-11T08:34:29.510Z,16.70
2022-09-11T08:35:35.533Z,16.76
2022-09-11T08:36:38.934Z,16.67
2022-09-11T08:37:50.558Z,16.64
2022-09-11T08:38:52.304Z,16.61
2022-09-11T08:39:58.571Z,16.69
2022-09-11T08:41:21.919Z,16.55
2022-09-11T08:42:27.155Z,16.50
2022-09-11T08:43:32.029Z,16.44
2022-09-11T08:44:47.128Z,16.46
2022-09-11T08:45:55.858Z,16.50
2022-09-11T08:47:01.972Z,16.60
2022-09-11T08:48:07.651Z,16.63
2022-09-11T08:49:14.027Z,16.50
2022-09-11T08:50:26.100Z,16.50
2022-09-11T08:51:31.030Z,16.65
2022-09-11T08:52:40.183Z,16.75
2022-09-11T08:53:46.377Z,16.64
2022-09-11T08:54:54.157Z,16.63
2022-09-11T08:55:59.988Z,16.70
2022-09-11T08:57:08.409Z,16.72
2022-09-11T08:58:25.618Z,16.73
2022-09-11T08:59:37.858Z,16.70
2022-09-11T09:00:47.266Z,16.65
2022-09-11T09:02:01.773Z,16.73
2022-09-11T09:03:15.539Z,16.65
2022-09-11T09:04:39.518Z,16.65
2022-09-11T09:06:00.150Z,16.69
2022-09-11T09:07:06.781Z,16.70
2022-09-11T09:08:30.550Z,16.71
2022-09-11T09:09:35.332Z,16.74
2022-09-11T09:10:46.643Z,16.81
2022-09-11T09:12:03.139Z,16.87
2022-09-11T09:13:08.600Z,16.86
2022-09-11T09:14:17.330Z,16.89
2022-09-11T09:15:40.672Z,16.89
2022-09-11T09:16:58.282Z,16.80
2022-09-11T09:18:02.501Z,16.81
2022-09-11T09:19:09.042Z,16.69
2022-09-11T09:20:16.238Z,16.74
2022-09-11T09:21:30.256Z,16.73
2022-09-11T09:22:47.483Z,16.66
2022-09-11T09:23:55.234Z,16.46
2022-09-11T09:25:00.604Z,16.48
2022-09-11T09:26:04.230Z,16.53
2022-09-11T09:27:07.845Z,16.50
2022-09-11T09:28:30.873Z,16.55
2022-09-11T09:29:38.774Z,16.68
2022-09-11T09:30:48.807Z,16.74
2022-09-11T09:31:55.081Z,16.56
2022-09-11T09:32:59.521Z,16.63
2022-09-11T09:34:09.507Z,16.72
2022-09-11T09:35:15.833Z,16.76
2022-09-11T09:36:24.248Z,16.85
2022-09-11T09:37:32.547Z,16.90
2022-09-11T09:38:36.469Z,16.81
2022-09-11T09:39:40.634Z,16.78
2022-09-11T09:40:46.413Z,16.82
2022-09-11T09:42:00.706Z,16.67
2022-09-11T09:43:07.669Z,16.80
2022-09-11T09:44:19.719Z,17.00
2022-09-11T09:45:41.017Z,17.14
2022-09-11T09:46:50.666Z,16.94
2022-09-11T09:47:50.258Z,16.70
2022-09-11T09:48:53.798Z,16.66
2022-09-11T09:49:58.934Z,16.44
2022-09-11T09:51:05.156Z,16.61
2022-09-11T09:52:10.438Z,16.79
2022-09-11T09:53:29.828Z,17.11
2022-09-11T09:54:36.703Z,17.26
2022-09-11T09:55:43.339Z,17.44
2022-09-11T09:56:50.162Z,17.37
2022-09-11T09:57:54.712Z,17.23
2022-09-11T09:59:02.694Z,17.07
2022-09-11T10:00:09.740Z,16.88
2022-09-11T10:01:39.987Z,17.01
2022-09-11T10:02:46.166Z,16.89
2022-09-11T10:03:53.945Z,17.01
2022-09-11T10:05:03.056Z,17.10
2022-09-11T10:06:10.303Z,17.12
2022-09-11T10:07:17.082Z,17.03
2022-09-11T10:08:37.076Z,17.09
2022-09-11T10:09:52.485Z,16.90
2022-09-11T10:11:03.651Z,16.83
2022-09-11T10:12:09.835Z,16.73
2022-09-11T10:13:23.431Z,16.71
2022-09-11T10:14:50.535Z,16.83
2022-09-11T10:15:34.906Z,16.55
2022-09-11T10:16:39.835Z,16.59
2022-09-11T10:17:42.493Z,16.60
2022-09-11T10:18:47.539Z,16.65
2022-09-11T10:19:53.692Z,16.72
2022-09-11T10:21:13.262Z,16.87
2022-09-11T10:22:30.262Z,16.91
2022-09-11T10:23:35.542Z,16.73
2022-09-11T10:24:40.462Z,16.84
2022-09-11T10:25:46.615Z,16.87
2022-09-11T10:26:51.938Z,16.74
2022-09-11T10:27:58.363Z,16.51
2022-09-11T10:29:03.719Z,16.44
2022-09-11T10:30:08.582Z,16.49
2022-09-11T10:31:14.312Z,16.76
2022-09-11T10:32:18.935Z,16.90
2022-09-11T10:33:25.459Z,16.98
2022-09-11T10:34:30.754Z,17.07
2022-09-11T10:35:37.950Z,17.12
2022-09-11T10:36:43.284Z,17.29
2022-09-11T10:37:46.800Z,17.16
2022-09-11T10:38:50.515Z,17.19
2022-09-11T10:39:55.593Z,17.08
2022-09-11T10:41:00.127Z,17.20
2022-09-11T10:42:07.821Z,17.35
2022-09-11T10:43:16.151Z,17.35
2022-09-11T10:44:21.650Z,17.44
2022-09-11T10:45:28.491Z,17.63
2022-09-11T10:46:38.448Z,17.71
2022-09-11T10:47:41.533Z,17.74
2022-09-11T10:48:47.790Z,17.49
2022-09-11T10:49:51.884Z,17.19
2022-09-11T10:51:03.778Z,16.94
2022-09-11T10:52:08.954Z,16.94
2022-09-11T10:53:18.058Z,17.00
2022-09-11T10:54:40.928Z,17.18
2022-09-11T10:55:48.462Z,17.11
2022-09-11T10:57:00.243Z,16.94
2022-09-11T10:58:05.187Z,16.89
2022-09-11T10:59:10.582Z,16.92
2022-09-11T11:00:21.921Z,17.19
2022-09-11T11:01:25.204Z,17.28
2022-09-11T11:02:31.041Z,17.42
2022-09-11T11:03:37.242Z,17.20
2022-09-11T11:04:40.531Z,17.17
2022-09-11T11:06:02.840Z,17.19
2022-09-11T11:07:10.112Z,17.27
2022-09-11T11:08:19.044Z,17.20
2022-09-11T11:09:31.092Z,17.36
2022-09-11T11:10:40.445Z,17.60
2022-09-11T11:11:49.914Z,17.73
2022-09-11T11:12:57.712Z,17.54
2022-09-11T11:14:19.162Z,17.55
2022-09-11T11:15:30.322Z,17.44
2022-09-11T11:16:42.173Z,17.17
2022-09-11T11:17:51.334Z,17.18
2022-09-11T11:18:57.330Z,17.03
2022-09-11T11:20:07.936Z,16.99
2022-09-11T11:21:22.827Z,16.98
2022-09-11T11:22:36.364Z,17.25
2022-09-11T11:23:50.517Z,17.36
2022-09-11T11:25:13.349Z,17.49
2022-09-11T11:26:35.640Z,17.43
2022-09-11T11:27:41.583Z,17.32
2022-09-11T11:28:53.527Z,17.32
2022-09-11T11:30:03.284Z,17.10
2022-09-11T11:31:08.512Z,17.03
2022-09-11T11:32:17.408Z,16.87
2022-09-11T11:33:22.678Z,16.95
2022-09-11T11:34:31.311Z,17.10
2022-09-11T11:35:52.364Z,17.22
2022-09-11T11:36:57.438Z,17.22
2022-09-11T11:38:04.423Z,17.38
2022-09-11T11:39:21.358Z,17.42
2022-09-11T11:40:43.558Z,17.45
2022-09-11T11:41:48.848Z,17.42
2022-09-11T11:42:56.281Z,17.59
2022-09-11T11:44:00.794Z,17.52
2022-09-11T11:45:05.422Z,17.65
2022-09-11T11:46:13.779Z,17.62
2022-09-11T11:47:20.475Z,17.69
2022-09-11T11:48:25.847Z,17.53
2022-09-11T11:49:38.012Z,17.35
2022-09-11T11:50:43.303Z,17.42
2022-09-11T11:51:49.728Z,17.42
2022-09-11T11:53:14.345Z,17.40
2022-09-11T11:54:22.342Z,17.43
2022-09-11T11:55:29.558Z,17.53
2022-09-11T11:56:37.489Z,17.40
2022-09-11T11:57:43.092Z,17.44
2022-09-11T11:58:54.640Z,17.46
2022-09-11T12:00:01.593Z,17.57
2022-09-11T12:01:08.752Z,17.54
2022-09-11T12:02:20.821Z,17.47
2022-09-11T12:03:29.054Z,17.40
2022-09-11T12:04:44.857Z,17.25
2022-09-11T12:05:51.062Z,17.34
2022-09-11T12:06:56.566Z,17.32
2022-09-11T12:08:00.584Z,17.28
2022-09-11T12:09:04.924Z,17.27
2022-09-11T12:10:09.369Z,17.34
2022-09-11T12:11:15.704Z,17.51
2022-09-11T12:12:19.830Z,17.64
2022-09-11T12:13:27.717Z,17.54
2022-09-11T12:14:34.787Z,17.64
2022-09-11T12:15:40.890Z,17.57
2022-09-11T12:16:46.316Z,17.55
2022-09-11T12:17:50.522Z,17.48
2022-09-11T12:19:13.142Z,17.49
2022-09-11T12:20:19.283Z,17.48
2022-09-11T12:21:26.730Z,17.55
2022-09-11T12:22:35.459Z,17.68
2022-09-11T12:23:51.695Z,17.77
2022-09-11T12:25:00.110Z,17.82
2022-09-11T12:26:10.872Z,17.92
2022-09-11T12:27:24.886Z,17.84
2022-09-11T12:28:28.122Z,17.80
2022-09-11T12:29:44.326Z,17.83
2022-09-11T12:30:49.293Z,17.86
2022-09-11T12:31:54.992Z,17.56
2022-09-11T12:33:01.554Z,17.34
2022-09-11T12:34:09.521Z,17.25
2022-09-11T12:35:21.277Z,17.25
2022-09-11T12:36:31.571Z,17.43
2022-09-11T12:37:38.503Z,17.70
2022-09-11T12:38:45.585Z,17.56
2022-09-11T12:39:53.818Z,17.47
2022-09-11T12:40:58.114Z,17.68
2022-09-11T12:43:39.810Z,17.66
2022-09-11T12:44:47.184Z,17.56
2022-09-11T12:45:51.530Z,17.49
2022-09-11T12:46:56.803Z,17.44
2022-09-11T12:48:07.909Z,17.26
2022-09-11T12:49:23.157Z,17.33
2022-09-11T12:50:20.258Z,17.20
2022-09-11T12:51:26.072Z,17.44
2022-09-11T12:52:52.869Z,17.26
2022-09-11T12:53:59.915Z,17.19
2022-09-11T12:55:04.048Z,17.16
2022-09-11T12:56:08.222Z,17.18
2022-09-11T12:57:12.519Z,17.46
2022-09-11T12:58:20.723Z,17.56
2022-09-11T12:59:26.433Z,17.55
2022-09-11T13:00:31.086Z,17.60
2022-09-11T13:01:36.153Z,17.48
2022-09-11T13:02:44.354Z,17.54
2022-09-11T13:05:21.443Z,17.31
2022-09-11T13:06:26.631Z,17.31
2022-09-11T13:07:34.824Z,17.31
2022-09-11T13:08:39.685Z,17.37
2022-09-11T13:09:45.292Z,17.46
2022-09-11T13:10:47.754Z,17.47
2022-09-11T13:11:55.827Z,17.30
2022-09-11T13:13:04.410Z,17.18
2022-09-11T13:14:25.667Z,17.03
2022-09-11T13:15:38.313Z,17.25
2022-09-11T13:16:42.558Z,17.35
2022-09-11T13:17:52.745Z,17.54
2022-09-11T13:19:00.227Z,17.40
2022-09-11T13:20:04.413Z,17.23
2022-09-11T13:21:13.088Z,17.32
2022-09-11T13:22:21.816Z,17.33
2022-09-11T13:23:26.876Z,17.05
2022-09-11T13:24:38.529Z,17.09
2022-09-11T13:25:41.174Z,17.32
2022-09-11T13:26:46.384Z,17.47
2022-09-11T13:27:51.447Z,17.57
2022-09-11T13:28:56.947Z,17.74
2022-09-11T13:30:01.808Z,17.69
2022-09-11T13:31:04.640Z,17.90
2022-09-11T13:32:11.112Z,18.07
2022-09-11T13:33:20.773Z,18.17
2022-09-11T13:34:26.952Z,18.28
2022-09-11T13:35:30.184Z,18.20
2022-09-11T13:36:36.362Z,18.21
2022-09-11T13:37:46.191Z,18.30
2022-09-11T13:38:51.259Z,18.33
2022-09-11T13:39:54.892Z,18.37
2022-09-11T13:40:59.210Z,18.36
2022-09-11T13:42:03.440Z,18.37
2022-09-11T13:43:06.835Z,18.35
2022-09-11T13:44:12.127Z,18.41
2022-09-11T13:45:17.720Z,18.23
2022-09-11T13:46:26.717Z,18.20
2022-09-11T13:47:32.992Z,18.25
2022-09-11T13:48:37.178Z,18.41
2022-09-11T13:49:42.174Z,18.38
2022-09-11T13:50:45.690Z,18.46
2022-09-11T13:51:49.063Z,18.33
2022-09-11T13:52:54.152Z,18.31
2022-09-11T13:53:58.603Z,18.31
2022-09-11T13:55:06.500Z,18.25
2022-09-11T13:56:19.866Z,18.36
2022-09-11T13:58:40.767Z,18.79
2022-09-11T13:59:46.112Z,18.80
2022-09-11T14:00:52.331Z,18.91
2022-09-11T14:02:03.250Z,18.89
2022-09-11T14:03:07.277Z,18.87
2022-09-11T14:04:11.618Z,18.88
2022-09-11T14:05:27.892Z,18.90
2022-09-11T14:06:32.416Z,18.74
2022-09-11T14:07:38.219Z,18.67
2022-09-11T14:08:48.503Z,18.69
2022-09-11T14:09:54.623Z,18.34
2022-09-11T14:11:00.733Z,18.26
2022-09-11T14:12:05.248Z,18.22
2022-09-11T14:13:20.600Z,18.23
2022-09-11T14:14:25.778Z,18.35
2022-09-11T14:15:30.953Z,18.61
2022-09-11T14:16:36.956Z,18.72
2022-09-11T14:17:42.482Z,18.85
2022-09-11T14:19:01.199Z,18.85
2022-09-11T14:20:05.758Z,18.84
2022-09-11T14:21:17.651Z,18.91
2022-09-11T14:22:25.093Z,18.79
2022-09-11T14:23:31.003Z,18.80
2022-09-11T14:24:36.479Z,18.81
2022-09-11T14:25:38.981Z,18.85
2022-09-11T14:26:43.385Z,18.74
2022-09-11T14:27:48.548Z,18.81
2022-09-11T14:29:00.521Z,18.91